createdAt,value
2022-09-30T00:01:14.275Z,11.15
2022-09-30T00:03:42.147Z,14.73
2022-09-30T00:06:10.987Z,10.25
2022-09-30T00:08:40.505Z,9.98
2022-09-30T00:11:10.747Z,10.73
2022-09-30T00:13:40.091Z,10.77
2022-09-30T00:16:10.083Z,11.93
2022-09-30T00:18:38.712Z,11.52
2022-09-30T00:21:08.304Z,12.73
2022-09-30T00:23:36.581Z,11.13
2022-09-30T00:26:09.442Z,12.32
2022-09-30T00:28:37.271Z,10.57
2022-09-30T00:31:07.855Z,10.60
2022-09-30T00:33:36.200Z,9.95
2022-09-30T00:36:04.603Z,9.13
2022-09-30T00:38:33.199Z,9.52
2022-09-30T00:41:02.646Z,11.00
2022-09-30T00:43:43.357Z,12.27
2022-09-30T00:46:20.119Z,12.77
2022-09-30T00:48:53.696Z,13.70
2022-09-30T00:51:28.449Z,11.65
2022-09-30T00:54:01.068Z,11.63
2022-09-30T00:56:32.795Z,12.02
2022-09-30T00:59:06.685Z,11.15
2022-09-30T01:01:35.991Z,11.20
2022-09-30T01:04:07.320Z,14.20
2022-09-30T01:06:35.137Z,12.70
2022-09-30T01:09:03.277Z,10.82
2022-09-30T01:11:31.562Z,10.85
2022-09-30T01:14:03.675Z,11.45
2022-09-30T01:16:57.061Z,13.00
2022-09-30T01:19:50.849Z,12.05
2022-09-30T01:22:27.991Z,11.55
2022-09-30T01:25:24.482Z,13.25
2022-09-30T01:28:24.055Z,15.40
2022-09-30T01:31:17.932Z,11.95
2022-09-30T01:33:52.955Z,11.98
2022-09-30T01:36:39.452Z,11.82
2022-09-30T01:39:31.386Z,13.35
2022-09-30T01:42:23.551Z,15.48
2022-09-30T01:45:18.779Z,12.77
2022-09-30T01:50:53.388Z,11.95
2022-09-30T01:53:26.009Z,12.10
2022-09-30T01:55:59.736Z,12.63
2022-09-30T01:58:34.102Z,11.45
2022-09-30T02:01:07.215Z,15.55
2022-09-30T02:03:39.773Z,13.60
2022-09-30T02:06:11.065Z,11.43
2022-09-30T02:08:42.348Z,13.77
2022-09-30T02:11:14.407Z,12.20
2022-09-30T02:13:46.636Z,11.82
2022-09-30T02:16:21.641Z,12.40
2022-09-30T02:18:55.342Z,12.55
2022-09-30T02:21:27.385Z,15.38
2022-09-30T02:24:00.941Z,15.07
2022-09-30T02:26:32.642Z,15.80
2022-09-30T02:29:05.002Z,16.75
2022-09-30T02:34:07.474Z,16.25
2022-09-30T02:36:40.148Z,17.40
2022-09-30T02:39:11.506Z,13.13
2022-09-30T02:41:45.292Z,12.73
2022-09-30T02:44:13.706Z,13.27
2022-09-30T02:46:47.726Z,13.93
2022-09-30T02:49:24.141Z,14.07
2022-09-30T02:52:12.532Z,16.88
2022-09-30T02:54:49.912Z,17.45
2022-09-30T02:57:23.411Z,13.88
2022-09-30T02:59:53.601Z,14.38
2022-09-30T03:02:22.385Z,14.23
2022-09-30T03:04:52.015Z,11.23
2022-09-30T03:07:20.172Z,14.02
2022-09-30T03:09:48.039Z,11.75
2022-09-30T03:12:27.473Z,14.32
2022-09-30T03:15:12.680Z,15.02
2022-09-30T03:17:56.272Z,13.18
2022-09-30T03:20:38.611Z,12.75
2022-09-30T03:23:36.231Z,14.63
2022-09-30T03:26:15.657Z,14.60
2022-09-30T03:28:52.972Z,13.38
2022-09-30T03:31:28.089Z,14.88
2022-09-30T03:34:03.866Z,13.32
2022-09-30T03:36:39.551Z,11.32
2022-09-30T03:39:17.780Z,14.98
2022-09-30T03:41:49.515Z,14.00
2022-09-30T03:44:23.164Z,8.90
2022-09-30T03:46:55.342Z,12.65
2022-09-30T03:49:25.409Z,10.77
2022-09-30T03:51:58.685Z,12.60
2022-09-30T03:54:27.129Z,11.80
2022-09-30T03:56:54.959Z,13.98
2022-09-30T03:59:27.892Z,12.77
2022-09-30T04:01:57.006Z,14.48
2022-09-30T04:04:24.842Z,13.05
2022-09-30T04:06:54.016Z,10.75
2022-09-30T04:09:21.925Z,13.63
2022-09-30T04:11:49.966Z,13.73
2022-09-30T04:14:17.769Z,14.82
2022-09-30T04:16:45.590Z,15.50
2022-09-30T04:19:13.398Z,15.65
2022-09-30T04:21:41.219Z,14.35
2022-09-30T04:24:10.730Z,17.27
2022-09-30T04:26:38.545Z,12.55
2022-09-30T04:29:06.434Z,14.02
2022-09-30T04:31:34.278Z,12.45
2022-09-30T04:34:02.354Z,13.07
2022-09-30T04:36:30.216Z,15.82
2022-09-30T04:38:58.548Z,13.88
2022-09-30T04:41:27.714Z,13.55
2022-09-30T04:43:55.814Z,12.48
2022-09-30T04:46:23.808Z,13.43
2022-09-30T04:48:51.756Z,16.27
2022-09-30T04:51:21.238Z,16.08
2022-09-30T04:53:49.816Z,15.18
2022-09-30T04:56:18.309Z,16.67
2022-09-30T04:58:47.472Z,14.73
2022-09-30T05:01:16.797Z,14.35
2022-09-30T05:03:45.512Z,15.50
2022-09-30T05:06:14.173Z,15.18
2022-09-30T05:08:46.059Z,16.33
2022-09-30T05:11:18.466Z,14.20
2022-09-30T05:13:48.594Z,13.70
2022-09-30T05:16:17.703Z,15.57
2022-09-30T05:18:46.958Z,13.23
2022-09-30T05:21:16.088Z,17.23
2022-09-30T05:23:44.085Z,18.45
2022-09-30T05:26:12.762Z,31.05
2022-09-30T05:28:40.828Z,27.73
2022-09-30T05:31:10.224Z,23.52
2022-09-30T05:33:38.083Z,22.00
2022-09-30T05:36:07.749Z,18.63
2022-09-30T05:38:36.145Z,17.73
2022-09-30T05:41:08.610Z,18.42
2022-09-30T05:43:38.134Z,18.20
2022-09-30T05:46:06.311Z,16.23
2022-09-30T05:48:35.688Z,16.02
2022-09-30T05:51:03.893Z,12.90
2022-09-30T05:53:32.897Z,12.02
2022-09-30T05:56:00.750Z,14.13
2022-09-30T05:58:28.624Z,12.82
2022-09-30T06:00:57.258Z,11.75
2022-09-30T06:03:27.113Z,18.17
2022-09-30T06:05:58.274Z,17.30
2022-09-30T06:08:26.508Z,13.70
2022-09-30T06:10:54.693Z,19.77
2022-09-30T06:13:22.528Z,21.27
2022-09-30T06:15:57.509Z,21.00
2022-09-30T06:18:26.043Z,20.50
2022-09-30T06:20:54.682Z,18.83
2022-09-30T06:23:23.887Z,19.75
2022-09-30T06:25:51.857Z,16.98
2022-09-30T06:28:20.042Z,15.85
2022-09-30T06:30:48.230Z,14.18
2022-09-30T06:33:17.384Z,12.82
2022-09-30T06:35:47.358Z,14.27
2022-09-30T06:38:16.595Z,15.10
2022-09-30T06:40:49.527Z,11.30
2022-09-30T06:43:17.417Z,14.93
2022-09-30T06:45:47.266Z,11.38
2022-09-30T06:48:20.269Z,14.30
2022-09-30T06:51:01.510Z,11.55
2022-09-30T06:53:30.188Z,12.77
2022-09-30T06:55:59.594Z,10.38
2022-09-30T06:58:27.457Z,10.82
2022-09-30T07:00:58.768Z,10.15
2022-09-30T07:03:29.272Z,13.05
2022-09-30T07:05:58.551Z,12.32
2022-09-30T07:08:29.168Z,10.75
2022-09-30T07:10:57.417Z,12.43
2022-09-30T07:13:27.480Z,11.27
2022-09-30T07:15:56.639Z,11.82
2022-09-30T07:18:27.998Z,10.43
2022-09-30T07:20:57.422Z,11.30
2022-09-30T07:23:27.397Z,10.73
2022-09-30T07:25:57.754Z,10.45
2022-09-30T07:28:31.234Z,9.60
2022-09-30T07:31:27.484Z,10.50
2022-09-30T07:33:51.191Z,11.27
2022-09-30T07:36:20.221Z,10.07
2022-09-30T07:38:49.858Z,11.38
2022-09-30T07:41:21.840Z,10.43
2022-09-30T07:43:51.142Z,10.45
2022-09-30T07:46:25.017Z,9.45
2022-09-30T07:48:57.358Z,10.00
2022-09-30T07:53:57.697Z,9.98
2022-09-30T07:56:26.534Z,10.10
2022-09-30T07:58:57.746Z,8.55
2022-09-30T08:01:25.710Z,10.23
2022-09-30T08:03:55.409Z,9.35
2022-09-30T08:06:23.861Z,8.50
2022-09-30T08:08:53.463Z,9.18
2022-09-30T08:11:21.595Z,9.48
2022-09-30T08:13:52.406Z,10.15
2022-09-30T08:16:22.746Z,9.75
2022-09-30T08:18:54.698Z,7.63
2022-09-30T08:21:22.998Z,7.00
2022-09-30T08:23:50.848Z,8.13
2022-09-30T08:26:18.841Z,8.10
2022-09-30T08:28:48.255Z,6.35
2022-09-30T08:31:18.414Z,6.18
2022-09-30T08:33:47.910Z,6.97
2022-09-30T08:36:17.220Z,5.50
2022-09-30T08:38:45.725Z,5.03
2022-09-30T08:41:24.202Z,5.03
2022-09-30T08:44:05.831Z,4.10
2022-09-30T08:46:42.735Z,4.30
2022-09-30T08:49:30.245Z,4.93
2022-09-30T08:52:00.614Z,4.10
2022-09-30T08:54:37.804Z,4.75
2022-09-30T08:57:08.912Z,4.18
2022-09-30T08:59:39.133Z,5.47
2022-09-30T09:02:18.206Z,4.15
2022-09-30T09:04:49.102Z,5.00
2022-09-30T09:07:30.681Z,2.78
2022-09-30T09:10:11.435Z,3.20
2022-09-30T09:12:47.938Z,3.05
2022-09-30T09:15:26.570Z,3.20
2022-09-30T09:18:23.266Z,4.50
2022-09-30T09:20:56.486Z,2.65
2022-09-30T09:23:24.961Z,4.50
2022-09-30T09:25:55.651Z,3.03
2022-09-30T09:28:33.789Z,1.80
2022-09-30T09:31:02.515Z,2.75
2022-09-30T09:33:32.389Z,2.38
2022-09-30T09:36:13.243Z,2.53
2022-09-30T09:38:57.895Z,2.65
2022-09-30T09:41:34.378Z,3.25
2022-09-30T09:44:06.678Z,2.20
2022-09-30T09:49:32.909Z,2.25
2022-09-30T09:52:40.010Z,2.92
2022-09-30T09:55:11.245Z,1.83
2022-09-30T09:57:40.181Z,2.35
2022-09-30T10:00:27.709Z,5.85
2022-09-30T10:03:03.985Z,5.22
2022-09-30T10:05:39.376Z,3.70
2022-09-30T10:08:13.120Z,2.95
2022-09-30T10:10:49.346Z,3.58
2022-09-30T10:13:22.457Z,5.03
2022-09-30T10:15:52.517Z,3.40
2022-09-30T10:18:25.817Z,3.05
2022-09-30T10:20:57.445Z,3.17
2022-09-30T10:23:29.508Z,4.57
2022-09-30T10:26:01.812Z,3.75
2022-09-30T10:31:14.312Z,4.90
2022-09-30T10:45:01.893Z,4.72
2022-09-30T10:47:36.596Z,4.78
2022-09-30T10:50:09.326Z,4.75
2022-09-30T10:52:40.466Z,4.20
2022-09-30T10:55:15.716Z,4.88
2022-09-30T10:57:45.812Z,3.80
2022-09-30T11:00:19.534Z,3.65
2022-09-30T11:02:58.982Z,4.13
2022-09-30T11:05:30.444Z,4.47
2022-09-30T11:08:04.138Z,2.30
2022-09-30T11:10:39.970Z,5.28
2022-09-30T11:13:14.603Z,4.25
2022-09-30T11:15:49.976Z,3.67
2022-09-30T11:18:26.793Z,4.45
2022-09-30T11:20:58.523Z,3.25
2022-09-30T11:23:31.892Z,3.78
2022-09-30T11:26:06.135Z,4.28
2022-09-30T11:28:47.761Z,3.50
2022-09-30T11:31:29.302Z,5.30
2022-09-30T11:34:15.813Z,3.05
2022-09-30T11:36:54.011Z,3.63
2022-09-30T11:39:49.375Z,3.40
2022-09-30T11:42:22.384Z,4.10
2022-09-30T11:45:01.204Z,3.78
2022-09-30T11:48:00.703Z,3.03
2022-09-30T11:50:49.036Z,6.13
2022-09-30T11:53:28.150Z,5.53
2022-09-30T11:56:16.911Z,4.97
2022-09-30T11:58:48.810Z,2.95
2022-09-30T12:01:22.443Z,3.20
2022-09-30T12:04:02.020Z,3.05
2022-09-30T12:06:35.564Z,2.65
2022-09-30T12:09:15.948Z,3.30
2022-09-30T12:11:51.634Z,3.03
2022-09-30T12:14:27.315Z,3.42
2022-09-30T12:16:57.723Z,2.50
2022-09-30T12:19:30.941Z,2.50
2022-09-30T12:22:06.466Z,2.67
2022-09-30T12:24:38.288Z,2.70
2022-09-30T12:27:13.817Z,2.30
2022-09-30T12:30:02.821Z,3.63
2022-09-30T12:32:58.427Z,2.05
2022-09-30T12:35:39.630Z,1.77
2022-09-30T12:38:27.046Z,1.85
2022-09-30T12:41:11.915Z,2.47
2022-09-30T12:44:17.634Z,1.60
2022-09-30T12:47:08.688Z,4.22
2022-09-30T12:49:40.348Z,1.45
2022-09-30T12:52:15.167Z,1.35
2022-09-30T12:54:50.839Z,1.38
2022-09-30T12:57:24.276Z,1.52
2022-09-30T12:59:55.665Z,1.23
2022-09-30T13:02:32.573Z,2.00
2022-09-30T13:05:46.898Z,1.48
2022-09-30T13:08:32.681Z,2.80
2022-09-30T13:11:07.873Z,1.60
2022-09-30T13:13:57.242Z,1.90
2022-09-30T13:16:58.373Z,4.18
2022-09-30T13:19:38.371Z,3.30
2022-09-30T13:22:55.154Z,2.70
2022-09-30T13:25:23.098Z,1.77
2022-09-30T13:35:50.609Z,2.97
2022-09-30T13:38:53.743Z,2.47
2022-09-30T13:41:24.739Z,3.90
2022-09-30T13:44:03.557Z,2.50
2022-09-30T13:46:36.727Z,2.42
2022-09-30T13:49:10.786Z,1.83
2022-09-30T13:51:41.693Z,2.33
2022-09-30T13:54:24.282Z,2.00
2022-09-30T13:56:54.155Z,1.77
2022-09-30T13:59:39.498Z,1.83
2022-09-30T14:02:39.589Z,1.42
2022-09-30T14:05:43.441Z,1.55
2022-09-30T14:08:41.526Z,1.20
2022-09-30T14:11:28.511Z,1.63
2022-09-30T14:14:14.517Z,1.17
2022-09-30T14:17:05.751Z,2.08
2022-09-30T14:20:02.820Z,1.30
2022-09-30T14:22:31.372Z,1.15
2022-09-30T14:24:59.523Z,1.05
2022-09-30T14:27:50.457Z,1.40
2022-09-30T14:30:21.322Z,1.10
2022-09-30T14:32:54.572Z,1.27
2022-09-30T14:35:25.130Z,1.40
2022-09-30T14:37:57.428Z,1.10
2022-09-30T14:42:55.465Z,0.93
2022-09-30T14:45:27.274Z,2.05
2022-09-30T14:48:00.401Z,3.22
2022-09-30T14:50:32.109Z,1.80
2022-09-30T14:53:02.793Z,1.33
2022-09-30T14:55:33.470Z,1.38
2022-09-30T14:58:28.319Z,1.40
2022-09-30T15:01:06.489Z,1.40
2022-09-30T15:03:39.430Z,1.80
2022-09-30T15:06:19.375Z,1.42
2022-09-30T15:08:48.438Z,6.07
2022-09-30T15:11:21.230Z,3.13
2022-09-30T15:13:50.116Z,1.48
2022-09-30T15:16:26.832Z,3.22
2022-09-30T15:18:56.448Z,3.15
2022-09-30T15:21:27.908Z,3.05
2022-09-30T15:23:57.806Z,4.95
2022-09-30T15:26:27.586Z,3.30
2022-09-30T15:28:55.735Z,3.88
2022-09-30T15:31:27.477Z,2.63
2022-09-30T15:34:05.005Z,2.47
2022-09-30T15:36:34.141Z,2.65
2022-09-30T15:39:02.811Z,1.60
2022-09-30T15:41:30.815Z,2.88
2022-09-30T15:44:00.435Z,1.60
2022-09-30T15:46:31.777Z,2.97
2022-09-30T15:49:01.646Z,1.80
2022-09-30T15:51:40.011Z,3.05
2022-09-30T15:54:32.162Z,4.22
2022-09-30T15:57:16.362Z,3.08
2022-09-30T16:00:02.078Z,2.30
2022-09-30T16:02:31.499Z,2.58
2022-09-30T16:05:02.014Z,2.45
2022-09-30T16:07:32.926Z,2.80
2022-09-30T16:10:00.910Z,1.92
2022-09-30T16:12:33.598Z,1.38
2022-09-30T16:15:08.037Z,1.30
2022-09-30T16:17:38.593Z,2.72
2022-09-30T16:20:09.242Z,1.33
2022-09-30T16:22:51.604Z,1.38
2022-09-30T16:25:26.405Z,1.25
2022-09-30T16:27:57.592Z,1.42
2022-09-30T16:30:25.998Z,1.65
2022-09-30T16:32:58.097Z,1.73
2022-09-30T16:35:27.979Z,2.33
2022-09-30T16:38:01.820Z,1.40
2022-09-30T16:40:32.026Z,2.53
2022-09-30T16:43:01.313Z,2.70
2022-09-30T16:45:31.275Z,2.03
2022-09-30T16:48:01.462Z,1.88
2022-09-30T16:50:36.689Z,1.80
2022-09-30T16:53:05.894Z,3.72
2022-09-30T16:55:33.809Z,2.67
2022-09-30T16:58:01.681Z,4.22
2022-09-30T17:00:30.105Z,2.20
2022-09-30T17:02:58.453Z,3.30
2022-09-30T17:05:27.809Z,1.77
2022-09-30T17:07:57.128Z,2.10
2022-09-30T17:10:29.061Z,2.88
2022-09-30T17:12:57.962Z,3.63
2022-09-30T17:15:25.887Z,2.10
2022-09-30T17:17:53.929Z,3.75
2022-09-30T17:20:22.179Z,4.85
2022-09-30T17:22:50.477Z,3.78
2022-09-30T17:25:19.020Z,1.63
2022-09-30T17:27:50.340Z,3.08
2022-09-30T17:30:19.177Z,4.00
2022-09-30T17:32:47.082Z,4.30
2022-09-30T17:35:15.256Z,3.20
2022-09-30T17:37:46.278Z,1.70
2022-09-30T17:40:32.600Z,4.13
2022-09-30T17:43:13.967Z,2.30
2022-09-30T17:45:43.992Z,2.15
2022-09-30T17:48:13.465Z,2.45
2022-09-30T17:50:44.190Z,2.53
2022-09-30T17:53:14.102Z,2.55
2022-09-30T17:55:43.529Z,3.25
2022-09-30T17:58:12.674Z,3.85
2022-09-30T18:00:40.494Z,2.45
2022-09-30T18:03:08.768Z,3.47
2022-09-30T18:05:37.349Z,2.92
2022-09-30T18:08:06.123Z,4.95
2022-09-30T18:10:36.558Z,3.35
2022-09-30T18:13:04.378Z,2.50
2022-09-30T18:15:33.935Z,2.88
2022-09-30T18:18:01.748Z,4.72
2022-09-30T18:20:29.564Z,3.65
2022-09-30T18:22:57.363Z,4.25
2022-09-30T18:25:25.338Z,3.20
2022-09-30T18:27:57.403Z,4.38
2022-09-30T18:30:26.849Z,6.43
2022-09-30T18:32:57.041Z,2.67
2022-09-30T18:35:25.551Z,2.85
2022-09-30T18:37:54.015Z,3.63
2022-09-30T18:40:24.614Z,2.95
2022-09-30T18:42:55.492Z,6.45
2022-09-30T18:45:23.618Z,3.35
2022-09-30T18:47:57.093Z,4.25
2022-09-30T18:50:26.569Z,4.10
2022-09-30T18:52:54.653Z,4.40
2022-09-30T18:55:22.922Z,5.13
2022-09-30T18:57:54.055Z,4.32
2022-09-30T19:00:21.905Z,6.25
2022-09-30T19:02:49.746Z,5.30
2022-09-30T19:05:19.227Z,4.20
2022-09-30T19:07:47.025Z,4.80
2022-09-30T19:10:15.651Z,4.97
2022-09-30T19:12:44.482Z,5.45
2022-09-30T19:15:15.966Z,5.68
2022-09-30T19:17:44.381Z,6.97
2022-09-30T19:20:13.954Z,4.05
2022-09-30T19:22:43.181Z,5.50
2022-09-30T19:25:12.638Z,6.65
2022-09-30T19:27:42.237Z,6.13
2022-09-30T19:30:12.225Z,4.63
2022-09-30T19:32:40.389Z,4.82
2022-09-30T19:35:44.218Z,4.93
2022-09-30T19:38:13.976Z,8.20
2022-09-30T19:40:42.157Z,8.75
2022-09-30T19:43:10.037Z,5.90
2022-09-30T19:45:37.922Z,7.50
2022-09-30T19:48:05.777Z,4.82
2022-09-30T19:50:36.734Z,5.68
2022-09-30T19:53:04.561Z,4.85
2022-09-30T19:55:46.811Z,5.80
2022-09-30T19:58:17.188Z,7.07
2022-09-30T20:00:47.023Z,6.95
2022-09-30T20:03:15.231Z,5.80
2022-09-30T20:05:43.875Z,5.88
2022-09-30T20:08:11.683Z,6.93
2022-09-30T20:10:40.829Z,5.72
2022-09-30T20:13:08.630Z,7.47
2022-09-30T20:15:53.132Z,5.40
2022-09-30T20:18:21.586Z,5.70
2022-09-30T20:21:25.487Z,7.45
2022-09-30T20:23:54.651Z,5.68
2022-09-30T20:26:23.836Z,6.93
2022-09-30T20:28:56.244Z,6.25
2022-09-30T20:31:24.689Z,5.28
2022-09-30T20:33:55.420Z,7.07
2022-09-30T20:36:23.311Z,6.35
2022-09-30T20:38:51.596Z,5.95
2022-09-30T20:41:19.507Z,5.80
2022-09-30T20:43:52.903Z,5.82
2022-09-30T20:46:21.658Z,7.13
2022-09-30T20:48:50.295Z,6.95
2022-09-30T20:51:19.414Z,5.93
2022-09-30T20:53:51.736Z,8.27
2022-09-30T20:58:47.738Z,8.48
2022-09-30T21:01:19.324Z,9.90
2022-09-30T21:03:50.384Z,8.43
2022-09-30T21:06:20.469Z,10.48
2022-09-30T21:08:50.774Z,9.77
2022-09-30T21:11:19.501Z,10.45
2022-09-30T21:13:48.944Z,8.00
2022-09-30T21:16:19.717Z,7.88
2022-09-30T21:18:48.276Z,8.55
2022-09-30T21:21:41.743Z,7.00
2022-09-30T21:24:09.744Z,11.13
2022-09-30T21:29:53.358Z,7.40
2022-09-30T21:32:28.875Z,6.35
2022-09-30T21:34:57.926Z,8.05
2022-09-30T21:37:26.002Z,6.50
2022-09-30T21:39:53.872Z,8.00
2022-09-30T21:42:22.365Z,6.57
2022-09-30T21:44:50.245Z,6.88
2022-09-30T21:47:18.434Z,10.68
2022-09-30T21:49:47.581Z,8.85
2022-09-30T21:52:15.441Z,8.00
2022-09-30T21:54:43.256Z,10.45
2022-09-30T21:57:11.134Z,10.43
2022-09-30T21:59:46.353Z,10.35
2022-09-30T22:02:16.473Z,10.50
2022-09-30T22:04:44.508Z,9.18
2022-09-30T22:07:15.377Z,10.10
2022-09-30T22:09:43.463Z,8.02
2022-09-30T22:12:11.328Z,8.82
2022-09-30T22:14:39.210Z,7.03
2022-09-30T22:17:09.131Z,8.02
2022-09-30T22:19:38.457Z,9.07
2022-09-30T22:22:06.410Z,7.90
2022-09-30T22:24:36.834Z,7.55
2022-09-30T22:27:06.142Z,8.82
2022-09-30T22:29:34.167Z,6.78
2022-09-30T22:32:02.834Z,6.22
2022-09-30T22:34:48.323Z,7.10
2022-09-30T22:37:33.901Z,7.32
2022-09-30T22:40:03.282Z,6.85
2022-09-30T22:42:31.493Z,6.97
2022-09-30T22:44:59.365Z,7.05
2022-09-30T22:47:27.273Z,8.30
2022-09-30T22:49:55.115Z,7.68
2022-09-30T22:52:22.945Z,6.45
2022-09-30T22:54:50.732Z,7.40
2022-09-30T22:57:19.890Z,8.13
2022-09-30T22:59:47.693Z,23.40
2022-09-30T23:02:15.986Z,27.65
2022-09-30T23:04:44.351Z,26.75
2022-09-30T23:07:12.250Z,24.45
2022-09-30T23:09:40.072Z,23.20
2022-09-30T23:12:07.944Z,21.92
2022-09-30T23:14:38.482Z,21.73
2022-09-30T23:17:06.293Z,23.08
2022-09-30T23:19:34.097Z,18.83
2022-09-30T23:22:01.881Z,17.00
2022-09-30T23:24:30.302Z,17.58
2022-09-30T23:26:58.282Z,12.70
2022-09-30T23:29:26.102Z,11.00
2022-09-30T23:32:23.153Z,12.05
2022-09-30T23:34:50.972Z,12.88
2022-09-30T23:37:19.180Z,12.70
2022-09-30T23:39:47.045Z,11.20
2022-09-30T23:42:14.870Z,9.68
2022-09-30T23:44:42.730Z,10.55
2022-09-30T23:47:19.320Z,9.90
2022-09-30T23:49:48.726Z,8.75
2022-09-30T23:52:17.408Z,9.43
2022-09-30T23:54:45.325Z,9.27
2022-09-30T23:57:13.229Z,8.63
2022-09-30T23:59:41.074Z,7.30
